createdAt,value
2023-03-03T00:01:07.388Z,2.60
2023-03-03T00:03:35.739Z,2.60
2023-03-03T00:06:05.318Z,2.60
2023-03-03T00:08:33.791Z,2.60
2023-03-03T00:11:06.121Z,2.60
2023-03-03T00:13:38.907Z,2.50
2023-03-03T00:16:17.401Z,2.50
2023-03-03T00:18:47.395Z,2.40
2023-03-03T00:21:34.130Z,2.30
2023-03-03T00:24:23.735Z,2.20
2023-03-03T00:26:55.536Z,2.10
2023-03-03T00:29:36.104Z,2.20
2023-03-03T00:32:24.833Z,2.20
2023-03-03T00:34:55.155Z,2.20
2023-03-03T00:37:31.824Z,2.10
2023-03-03T00:40:21.715Z,2.10
2023-03-03T00:42:54.065Z,2.10
2023-03-03T00:45:36.377Z,2.10
2023-03-03T00:48:22.545Z,2.10
2023-03-03T00:50:51.740Z,2.10
2023-03-03T00:53:21.553Z,2.10
2023-03-03T00:55:51.073Z,2.00
2023-03-03T00:58:21.988Z,2.00
2023-03-03T01:00:52.265Z,2.00
2023-03-03T01:03:25.460Z,1.90
2023-03-03T01:05:54.447Z,2.00
2023-03-03T01:08:23.206Z,1.90
2023-03-03T01:10:53.004Z,1.90
2023-03-03T01:13:27.014Z,1.80
2023-03-03T01:15:55.529Z,1.70
2023-03-03T01:18:23.703Z,1.50
2023-03-03T01:20:52.782Z,1.40
2023-03-03T01:23:20.880Z,1.40
2023-03-03T01:25:49.119Z,1.40
2023-03-03T01:28:18.061Z,1.30
2023-03-03T01:30:48.157Z,1.30
2023-03-03T01:33:16.380Z,1.20
2023-03-03T01:35:47.245Z,1.20
2023-03-03T01:38:16.033Z,1.20
2023-03-03T01:40:44.150Z,1.10
2023-03-03T01:43:15.931Z,1.00
2023-03-03T01:46:17.340Z,1.00
2023-03-03T01:48:47.629Z,0.90
2023-03-03T01:51:23.769Z,0.90
2023-03-03T01:53:54.769Z,0.80
2023-03-03T01:56:23.559Z,0.80
2023-03-03T01:58:57.074Z,0.70
2023-03-03T02:01:28.188Z,0.70
2023-03-03T02:03:58.392Z,0.80
2023-03-03T02:06:32.011Z,0.80
2023-03-03T02:09:03.711Z,0.70
2023-03-03T02:11:34.030Z,0.70
2023-03-03T02:14:02.312Z,0.60
2023-03-03T02:16:30.701Z,0.60
2023-03-03T02:19:00.306Z,0.50
2023-03-03T02:21:29.612Z,0.50
2023-03-03T02:24:04.510Z,0.50
2023-03-03T02:26:37.900Z,0.40
2023-03-03T02:29:09.349Z,0.40
2023-03-03T02:31:39.883Z,0.50
2023-03-03T02:34:08.092Z,0.60
2023-03-03T02:36:39.162Z,0.60
2023-03-03T02:39:11.758Z,0.70
2023-03-03T02:41:46.265Z,0.70
2023-03-03T02:44:17.102Z,0.60
2023-03-03T02:46:47.816Z,0.60
2023-03-03T02:49:17.555Z,0.60
2023-03-03T02:51:45.994Z,0.60
2023-03-03T02:54:16.057Z,0.40
2023-03-03T02:56:45.867Z,0.40
2023-03-03T02:59:14.841Z,0.30
2023-03-03T03:01:47.915Z,0.30
2023-03-03T03:04:21.107Z,0.20
2023-03-03T03:06:51.792Z,0.10
2023-03-03T03:09:22.258Z,0.10
2023-03-03T03:11:54.038Z,0.10
2023-03-03T03:14:25.805Z,0.10
2023-03-03T03:16:55.780Z,0.00
2023-03-03T03:19:24.231Z,0.00
2023-03-03T03:21:52.850Z,0.00
2023-03-03T03:24:21.964Z,0.00
2023-03-03T03:26:58.022Z,0.00
2023-03-03T03:29:28.074Z,0.00
2023-03-03T03:31:57.044Z,-0.10
2023-03-03T03:34:25.728Z,-0.20
2023-03-03T03:36:55.502Z,-0.20
2023-03-03T03:39:25.545Z,-0.20
2023-03-03T03:41:54.713Z,-0.30
2023-03-03T03:44:25.290Z,-0.30
2023-03-03T03:46:53.884Z,-0.30
2023-03-03T03:49:22.679Z,-0.30
2023-03-03T03:51:52.874Z,-0.30
2023-03-03T03:54:25.198Z,-0.30
2023-03-03T03:56:54.599Z,-0.30
2023-03-03T03:59:24.423Z,-0.30
2023-03-03T04:01:53.141Z,-0.30
2023-03-03T04:04:23.158Z,-0.40
2023-03-03T04:06:51.951Z,-0.40
2023-03-03T04:09:21.144Z,-0.40
2023-03-03T04:11:50.099Z,-0.30
2023-03-03T04:14:19.095Z,-0.40
2023-03-03T04:16:49.004Z,-0.40
2023-03-03T04:19:17.986Z,-0.40
2023-03-03T04:21:46.448Z,-0.40
2023-03-03T04:24:14.628Z,-0.50
2023-03-03T04:26:43.049Z,-0.40
2023-03-03T04:29:13.168Z,-0.50
2023-03-03T04:31:44.071Z,-0.40
2023-03-03T04:34:14.256Z,-0.50
2023-03-03T04:36:43.182Z,-0.50
2023-03-03T04:39:11.498Z,-0.60
2023-03-03T04:41:40.244Z,-0.60
2023-03-03T04:44:08.620Z,-0.60
2023-03-03T04:46:36.930Z,-0.60
2023-03-03T04:49:12.046Z,-0.60
2023-03-03T04:51:42.746Z,-0.50
2023-03-03T04:54:11.303Z,-0.50
2023-03-03T04:56:39.556Z,-0.50
2023-03-03T04:59:07.906Z,-0.40
2023-03-03T05:01:36.367Z,-0.40
2023-03-03T05:04:05.089Z,-0.30
2023-03-03T05:06:33.315Z,-0.30
2023-03-03T05:09:02.877Z,-0.30
2023-03-03T05:11:32.565Z,-0.30
2023-03-03T05:14:01.067Z,-0.20
2023-03-03T05:16:29.539Z,-0.20
2023-03-03T05:18:57.842Z,-0.20
2023-03-03T05:21:26.081Z,-0.20
2023-03-03T05:23:54.390Z,-0.20
2023-03-03T05:26:26.818Z,-0.20
2023-03-03T05:28:55.035Z,-0.10
2023-03-03T05:31:23.639Z,-0.10
2023-03-03T05:33:51.925Z,-0.10
2023-03-03T05:36:20.236Z,-0.10
2023-03-03T05:38:48.383Z,0.00
2023-03-03T05:41:16.815Z,0.00
2023-03-03T05:43:46.478Z,0.10
2023-03-03T05:46:14.798Z,0.10
2023-03-03T05:48:43.101Z,0.10
2023-03-03T05:51:11.732Z,0.10
2023-03-03T05:53:40.129Z,0.20
2023-03-03T05:56:08.766Z,0.10
2023-03-03T05:58:37.139Z,0.20
2023-03-03T06:01:06.817Z,0.20
2023-03-03T06:03:35.061Z,0.20
2023-03-03T06:06:03.587Z,0.20
2023-03-03T06:08:32.853Z,0.20
2023-03-03T06:11:00.940Z,0.20
2023-03-03T06:13:30.347Z,0.20
2023-03-03T06:15:58.633Z,0.30
2023-03-03T06:18:28.136Z,0.30
2023-03-03T06:20:56.740Z,0.30
2023-03-03T06:23:24.953Z,0.40
2023-03-03T06:25:53.872Z,0.40
2023-03-03T06:28:22.177Z,0.40
2023-03-03T06:30:50.368Z,0.50
2023-03-03T06:33:18.538Z,0.50
2023-03-03T06:35:50.951Z,0.50
2023-03-03T06:38:19.445Z,0.50
2023-03-03T06:40:48.455Z,0.60
2023-03-03T06:43:16.662Z,0.60
2023-03-03T06:45:46.842Z,0.60
2023-03-03T06:48:15.038Z,0.70
2023-03-03T06:50:43.256Z,0.70
2023-03-03T06:53:14.863Z,0.70
2023-03-03T06:55:45.101Z,0.80
2023-03-03T06:58:15.709Z,0.90
2023-03-03T07:00:45.765Z,1.00
2023-03-03T07:03:17.032Z,1.10
2023-03-03T07:05:46.059Z,1.10
2023-03-03T07:08:18.252Z,1.20
2023-03-03T07:10:47.597Z,1.30
2023-03-03T07:13:22.297Z,1.40
2023-03-03T07:15:51.899Z,1.50
2023-03-03T07:18:40.727Z,1.60
2023-03-03T07:21:17.910Z,1.70
2023-03-03T07:23:48.518Z,1.80
2023-03-03T07:26:19.343Z,1.90
2023-03-03T07:28:55.389Z,1.90
2023-03-03T07:31:36.793Z,2.00
2023-03-03T07:34:16.352Z,2.10
2023-03-03T07:36:44.877Z,2.10
2023-03-03T07:39:33.223Z,2.20
2023-03-03T07:42:15.309Z,2.30
2023-03-03T07:44:43.504Z,2.20
2023-03-03T07:47:21.059Z,2.20
2023-03-03T07:49:50.113Z,2.20
2023-03-03T07:52:26.268Z,2.20
2023-03-03T07:54:58.087Z,2.20
2023-03-03T07:57:28.209Z,2.20
2023-03-03T08:00:01.210Z,2.30
2023-03-03T08:02:45.354Z,2.30
2023-03-03T08:05:38.026Z,2.40
2023-03-03T08:08:20.399Z,2.40
2023-03-03T08:10:52.087Z,2.40
2023-03-03T08:13:21.979Z,2.40
2023-03-03T08:15:52.284Z,2.50
2023-03-03T08:18:28.262Z,2.50
2023-03-03T08:20:58.993Z,2.60
2023-03-03T08:23:27.292Z,2.70
2023-03-03T08:25:56.677Z,2.70
2023-03-03T08:28:24.749Z,2.80
2023-03-03T08:31:02.715Z,2.90
2023-03-03T08:33:37.291Z,3.00
2023-03-03T08:36:06.046Z,3.10
2023-03-03T08:38:34.493Z,3.20
2023-03-03T08:41:04.619Z,3.30
2023-03-03T08:43:33.128Z,3.40
2023-03-03T08:46:03.796Z,3.50
2023-03-03T08:48:32.107Z,3.60
2023-03-03T08:51:00.630Z,3.70
2023-03-03T08:53:29.255Z,3.70
2023-03-03T08:55:57.330Z,3.80
2023-03-03T08:58:35.020Z,3.80
2023-03-03T09:01:03.646Z,3.90
2023-03-03T09:03:31.799Z,3.90
2023-03-03T09:05:59.785Z,4.00
2023-03-03T09:08:27.833Z,4.00
2023-03-03T09:10:55.827Z,4.10
2023-03-03T09:13:23.860Z,4.20
2023-03-03T09:15:53.345Z,4.30
2023-03-03T09:18:23.444Z,4.40
2023-03-03T09:20:54.060Z,4.60
2023-03-03T09:23:34.970Z,4.70
2023-03-03T09:26:26.894Z,4.70
2023-03-03T09:28:56.648Z,4.90
2023-03-03T09:31:40.267Z,5.00
2023-03-03T09:34:20.689Z,5.10
2023-03-03T09:36:49.541Z,5.20
2023-03-03T09:39:20.373Z,5.30
2023-03-03T09:42:21.756Z,5.30
2023-03-03T09:45:04.162Z,5.40
2023-03-03T09:47:45.216Z,5.30
2023-03-03T09:50:23.170Z,5.40
2023-03-03T09:52:57.358Z,5.50
2023-03-03T09:55:40.607Z,5.60
2023-03-03T09:58:24.680Z,5.70
2023-03-03T10:01:00.707Z,5.80
2023-03-03T10:04:15.595Z,5.90
2023-03-03T10:06:49.943Z,6.00
2023-03-03T10:09:47.516Z,6.10
2023-03-03T10:12:22.572Z,6.20
2023-03-03T10:15:23.005Z,6.30
2023-03-03T10:17:53.266Z,6.40
2023-03-03T10:20:51.290Z,6.50
2023-03-03T10:23:25.156Z,6.50
2023-03-03T10:26:06.281Z,6.50
2023-03-03T10:28:54.765Z,6.20
2023-03-03T10:31:33.355Z,6.30
2023-03-03T10:34:12.005Z,6.30
2023-03-03T10:36:50.588Z,6.30
2023-03-03T10:39:41.488Z,6.20
2023-03-03T10:42:25.966Z,6.20
2023-03-03T10:45:30.495Z,6.30
2023-03-03T10:48:16.110Z,6.30
2023-03-03T10:50:54.758Z,6.40
2023-03-03T10:53:31.768Z,6.40
2023-03-03T10:56:16.164Z,6.50
2023-03-03T10:58:50.988Z,6.70
2023-03-03T11:01:27.788Z,6.70
2023-03-03T11:04:22.913Z,6.80
2023-03-03T11:06:56.193Z,6.90
2023-03-03T11:09:55.058Z,7.00
2023-03-03T11:12:35.428Z,7.00
2023-03-03T11:15:27.111Z,7.00
2023-03-03T11:18:12.108Z,7.00
2023-03-03T11:20:44.113Z,6.90
2023-03-03T11:23:40.356Z,6.90
2023-03-03T11:26:18.169Z,7.00
2023-03-03T11:28:56.394Z,7.10
2023-03-03T11:31:32.118Z,7.10
2023-03-03T11:34:08.273Z,7.20
2023-03-03T11:36:40.445Z,7.30
2023-03-03T11:39:11.793Z,7.30
2023-03-03T11:41:43.862Z,7.30
2023-03-03T11:44:23.002Z,7.40
2023-03-03T11:46:54.458Z,7.50
2023-03-03T11:49:30.042Z,7.60
2023-03-03T11:52:07.170Z,7.70
2023-03-03T11:54:45.182Z,7.70
2023-03-03T11:57:22.062Z,7.70
2023-03-03T12:00:02.942Z,7.80
2023-03-03T12:03:03.752Z,7.80
2023-03-03T12:05:41.853Z,7.90
2023-03-03T12:08:20.879Z,8.00
2023-03-03T12:10:59.196Z,8.00
2023-03-03T12:13:36.808Z,8.10
2023-03-03T12:16:12.197Z,8.20
2023-03-03T12:19:00.455Z,8.20
2023-03-03T12:21:40.496Z,8.40
2023-03-03T12:24:33.513Z,8.40
2023-03-03T12:27:15.642Z,8.40
2023-03-03T12:29:58.684Z,8.50
2023-03-03T12:32:42.573Z,8.60
2023-03-03T12:35:21.085Z,8.70
2023-03-03T12:37:55.681Z,8.80
2023-03-03T12:40:28.233Z,8.90
2023-03-03T12:43:20.883Z,9.00
2023-03-03T12:45:58.920Z,9.10
2023-03-03T12:48:33.496Z,9.10
2023-03-03T12:51:07.518Z,9.10
2023-03-03T12:53:47.435Z,9.10
2023-03-03T12:56:25.357Z,9.20
2023-03-03T12:59:01.699Z,9.30
2023-03-03T13:01:42.796Z,9.30
2023-03-03T13:04:18.295Z,9.40
2023-03-03T13:06:54.072Z,9.40
2023-03-03T13:09:31.687Z,9.40
2023-03-03T13:12:36.557Z,9.40
2023-03-03T13:15:16.321Z,9.40
2023-03-03T13:17:54.916Z,9.50
2023-03-03T13:20:30.707Z,9.50
2023-03-03T13:23:06.911Z,9.60
2023-03-03T13:25:48.895Z,9.70
2023-03-03T13:28:26.478Z,9.80
2023-03-03T13:30:59.416Z,9.90
2023-03-03T13:33:31.112Z,9.90
2023-03-03T13:36:03.028Z,10.00
2023-03-03T13:38:33.744Z,10.10
2023-03-03T13:41:08.125Z,10.10
2023-03-03T13:43:44.861Z,10.20
2023-03-03T13:46:18.075Z,10.30
2023-03-03T13:49:01.517Z,10.30
2023-03-03T13:51:42.150Z,10.50
2023-03-03T13:54:19.880Z,10.70
2023-03-03T13:57:15.274Z,10.90
2023-03-03T13:59:55.825Z,11.20
2023-03-03T14:02:47.904Z,11.40
2023-03-03T14:05:24.657Z,11.60
2023-03-03T14:07:59.823Z,11.90
2023-03-03T14:10:32.623Z,12.30
2023-03-03T14:13:06.145Z,12.50
2023-03-03T14:15:36.928Z,12.70
2023-03-03T14:18:22.265Z,12.70
2023-03-03T14:20:54.037Z,12.90
2023-03-03T14:23:28.548Z,12.90
2023-03-03T14:26:00.958Z,13.10
2023-03-03T14:28:30.983Z,13.40
2023-03-03T14:31:01.139Z,13.50
2023-03-03T14:33:32.443Z,13.50
2023-03-03T14:36:12.325Z,13.30
2023-03-03T14:38:51.695Z,13.20
2023-03-03T14:41:36.148Z,13.30
2023-03-03T14:44:26.346Z,13.50
2023-03-03T14:47:07.015Z,13.80
2023-03-03T14:49:37.878Z,14.10
2023-03-03T14:52:20.947Z,14.30
2023-03-03T14:54:51.733Z,14.20
2023-03-03T14:57:21.570Z,14.10
2023-03-03T15:00:03.311Z,14.10
2023-03-03T15:02:36.787Z,14.20
2023-03-03T15:05:23.830Z,14.20
2023-03-03T15:07:56.781Z,14.30
2023-03-03T15:10:30.758Z,14.30
2023-03-03T15:12:59.328Z,14.20
2023-03-03T15:15:29.033Z,14.20
2023-03-03T15:18:02.731Z,14.40
2023-03-03T15:20:43.291Z,14.20
2023-03-03T15:23:39.964Z,14.20
2023-03-03T15:26:13.242Z,14.10
2023-03-03T15:28:54.277Z,14.10
2023-03-03T15:31:36.260Z,14.20
2023-03-03T15:34:24.110Z,14.20
2023-03-03T15:36:57.340Z,14.20
2023-03-03T15:39:36.524Z,14.00
2023-03-03T15:42:09.312Z,13.80
2023-03-03T15:44:49.043Z,13.80
2023-03-03T15:47:35.716Z,13.70
2023-03-03T15:50:16.428Z,13.70
2023-03-03T15:53:00.945Z,13.70
2023-03-03T15:55:44.211Z,13.70
2023-03-03T15:58:43.885Z,13.70
2023-03-03T16:01:23.297Z,13.70
2023-03-03T16:03:57.047Z,13.60
2023-03-03T16:06:34.239Z,13.50
2023-03-03T16:09:07.976Z,13.40
2023-03-03T16:11:46.926Z,13.30
2023-03-03T16:14:48.492Z,13.20
2023-03-03T16:17:27.403Z,13.20
2023-03-03T16:20:09.077Z,13.10
2023-03-03T16:22:49.800Z,13.00
2023-03-03T16:25:38.212Z,12.80
2023-03-03T16:28:14.322Z,12.70
2023-03-03T16:30:51.218Z,12.70
2023-03-03T16:33:28.455Z,12.60
2023-03-03T16:36:04.542Z,12.50
2023-03-03T16:38:39.449Z,12.30
2023-03-03T16:41:13.774Z,12.20
2023-03-03T16:43:54.717Z,12.10
2023-03-03T16:46:32.919Z,12.00
2023-03-03T16:49:08.327Z,11.90
2023-03-03T16:51:44.793Z,11.80
2023-03-03T16:54:19.481Z,11.70
2023-03-03T16:56:53.458Z,11.60
2023-03-03T16:59:46.870Z,11.50
2023-03-03T17:02:54.321Z,11.40
2023-03-03T17:05:30.309Z,11.30
2023-03-03T17:08:11.757Z,11.10
2023-03-03T17:10:44.313Z,11.00
2023-03-03T17:13:23.945Z,10.90
2023-03-03T17:16:08.824Z,10.80
2023-03-03T17:18:47.576Z,10.60
2023-03-03T17:21:26.096Z,10.50
2023-03-03T17:24:05.376Z,10.40
2023-03-03T17:26:45.008Z,10.20
2023-03-03T17:29:29.340Z,10.10
2023-03-03T17:32:12.173Z,9.80
2023-03-03T17:34:50.849Z,9.70
2023-03-03T17:37:30.346Z,9.60
2023-03-03T17:40:14.788Z,9.40
2023-03-03T17:42:50.725Z,9.20
2023-03-03T17:45:20.627Z,9.10
2023-03-03T17:48:05.413Z,8.90
2023-03-03T17:50:53.754Z,8.60
2023-03-03T17:53:45.064Z,8.40
2023-03-03T17:56:19.995Z,8.20
2023-03-03T17:59:26.544Z,8.10
2023-03-03T18:02:18.918Z,7.90
2023-03-03T18:05:14.343Z,7.80
2023-03-03T18:07:55.054Z,7.60
2023-03-03T18:10:59.815Z,7.50
2023-03-03T18:14:02.507Z,7.40
2023-03-03T18:16:44.347Z,7.30
2023-03-03T18:19:48.998Z,7.10
2023-03-03T18:22:23.935Z,6.90
2023-03-03T18:24:59.841Z,6.80
2023-03-03T18:27:34.165Z,6.60
2023-03-03T18:30:26.307Z,6.40
2023-03-03T18:33:15.428Z,6.30
2023-03-03T18:35:44.983Z,6.20
2023-03-03T18:38:35.671Z,6.00
2023-03-03T18:41:06.398Z,5.90
2023-03-03T18:43:56.524Z,5.80
2023-03-03T18:46:51.413Z,5.70
2023-03-03T18:49:20.410Z,5.70
2023-03-03T18:52:07.964Z,5.70
2023-03-03T18:54:41.517Z,5.60
2023-03-03T18:57:19.228Z,5.60
2023-03-03T18:59:59.390Z,5.50
2023-03-03T19:02:46.336Z,5.50
2023-03-03T19:05:23.419Z,5.40
2023-03-03T19:07:57.679Z,5.20
2023-03-03T19:10:54.829Z,5.20
2023-03-03T19:14:13.071Z,5.10
2023-03-03T19:16:41.284Z,5.00
2023-03-03T19:19:15.749Z,4.90
2023-03-03T19:21:48.137Z,4.80
2023-03-03T19:24:34.817Z,4.70
2023-03-03T19:27:28.267Z,4.70
2023-03-03T19:30:20.879Z,4.60
2023-03-03T19:33:29.626Z,4.50
2023-03-03T19:36:12.194Z,4.40
2023-03-03T19:38:48.396Z,4.30
2023-03-03T19:41:26.384Z,4.30
2023-03-03T19:44:05.921Z,4.30
2023-03-03T19:46:50.050Z,4.20
2023-03-03T19:49:29.077Z,4.10
2023-03-03T19:52:05.080Z,4.10
2023-03-03T19:54:54.299Z,4.00
2023-03-03T19:57:35.587Z,4.00
2023-03-03T20:00:16.476Z,4.00
2023-03-03T20:02:57.795Z,4.00
2023-03-03T20:05:33.396Z,3.90
2023-03-03T20:08:07.384Z,3.90
2023-03-03T20:10:45.269Z,3.90
2023-03-03T20:13:45.371Z,3.80
2023-03-03T20:16:26.718Z,3.80
2023-03-03T20:19:22.136Z,3.70
2023-03-03T20:22:00.428Z,3.60
2023-03-03T20:24:48.247Z,3.50
2023-03-03T20:27:21.420Z,3.40
2023-03-03T20:30:15.821Z,3.40
2023-03-03T20:33:07.524Z,3.40
2023-03-03T20:35:45.118Z,3.40
2023-03-03T20:38:24.115Z,3.30
2023-03-03T20:40:58.810Z,3.30
2023-03-03T20:43:43.581Z,3.30
2023-03-03T20:46:22.311Z,3.30
2023-03-03T20:49:24.925Z,3.30
2023-03-03T20:52:00.437Z,3.20
2023-03-03T20:54:39.180Z,3.20
2023-03-03T20:57:15.916Z,3.10
2023-03-03T20:59:51.138Z,3.10
2023-03-03T21:02:27.274Z,3.10
2023-03-03T21:05:14.056Z,3.10
2023-03-03T21:07:53.530Z,3.10
2023-03-03T21:10:24.231Z,3.00
2023-03-03T21:12:54.039Z,3.00
2023-03-03T21:15:29.118Z,2.90
2023-03-03T21:17:58.970Z,2.90
2023-03-03T21:20:31.373Z,2.80
2023-03-03T21:23:01.154Z,2.80
2023-03-03T21:25:49.781Z,2.80
2023-03-03T21:28:20.546Z,2.70
2023-03-03T21:31:17.035Z,2.70
2023-03-03T21:33:53.975Z,2.60
2023-03-03T21:36:26.178Z,2.60
2023-03-03T21:38:55.309Z,2.50
2023-03-03T21:41:23.350Z,2.60
2023-03-03T21:43:53.471Z,2.50
2023-03-03T21:46:23.108Z,2.50
2023-03-03T21:48:51.879Z,2.50
2023-03-03T21:51:21.453Z,2.40
2023-03-03T21:53:51.118Z,2.40
2023-03-03T21:56:19.278Z,2.40
2023-03-03T21:58:47.376Z,2.40
2023-03-03T22:01:15.494Z,2.40
2023-03-03T22:03:45.672Z,2.30
2023-03-03T22:06:13.800Z,2.20
2023-03-03T22:08:41.923Z,2.10
2023-03-03T22:11:11.382Z,2.00
2023-03-03T22:13:41.238Z,1.90
2023-03-03T22:16:09.802Z,1.80
2023-03-03T22:18:38.108Z,1.80
2023-03-03T22:21:06.581Z,1.70
2023-03-03T22:23:34.720Z,1.60
2023-03-03T22:26:02.958Z,1.60
2023-03-03T22:28:32.698Z,1.50
2023-03-03T22:31:00.800Z,1.50
2023-03-03T22:33:28.943Z,1.50
2023-03-03T22:35:57.128Z,1.50
2023-03-03T22:38:25.865Z,1.50
2023-03-03T22:40:54.439Z,1.50
2023-03-03T22:43:23.007Z,1.50
2023-03-03T22:45:53.553Z,1.50
2023-03-03T22:48:23.316Z,1.60
2023-03-03T22:50:51.479Z,1.60
2023-03-03T22:53:20.175Z,1.60
2023-03-03T22:55:48.576Z,1.60
2023-03-03T22:58:20.104Z,1.70
2023-03-03T23:00:48.693Z,1.80
2023-03-03T23:03:18.201Z,1.80
2023-03-03T23:05:46.362Z,1.70
2023-03-03T23:08:16.241Z,1.70
2023-03-03T23:10:44.542Z,1.60
2023-03-03T23:13:12.925Z,1.50
2023-03-03T23:15:41.184Z,1.50
2023-03-03T23:18:09.465Z,1.50
2023-03-03T23:20:39.521Z,1.40
2023-03-03T23:23:07.685Z,1.30
2023-03-03T23:25:35.786Z,1.20
2023-03-03T23:28:04.008Z,1.20
2023-03-03T23:30:32.201Z,1.20
2023-03-03T23:33:00.336Z,1.10
2023-03-03T23:35:28.573Z,1.10
2023-03-03T23:37:58.034Z,1.10
2023-03-03T23:40:26.269Z,1.10
2023-03-03T23:42:54.403Z,1.10
2023-03-03T23:45:22.530Z,1.10
2023-03-03T23:47:50.767Z,1.10
2023-03-03T23:50:19.091Z,1.10
2023-03-03T23:52:47.304Z,1.00
2023-03-03T23:55:16.917Z,1.00
2023-03-03T23:57:45.146Z,1.00
